createdAt,value
2019-05-26T00:00:35.237Z,0.39
2019-05-26T00:01:34.945Z,0.28
2019-05-26T00:02:34.589Z,0.00
2019-05-26T00:03:34.543Z,0.00
2019-05-26T00:04:34.899Z,0.00
2019-05-26T00:05:34.612Z,0.00
2019-05-26T00:06:34.548Z,0.00
2019-05-26T00:07:34.743Z,0.00
2019-05-26T00:08:35.748Z,0.00
2019-05-26T00:09:34.611Z,0.00
2019-05-26T00:10:34.634Z,0.00
2019-05-26T00:11:34.934Z,0.00
2019-05-26T00:12:34.911Z,0.00
2019-05-26T00:13:34.630Z,0.00
2019-05-26T00:14:34.651Z,0.00
2019-05-26T00:15:34.932Z,0.00
2019-05-26T00:16:34.870Z,0.00
2019-05-26T00:17:34.605Z,0.00
2019-05-26T00:18:34.664Z,0.00
2019-05-26T00:19:34.765Z,0.00
2019-05-26T00:20:34.611Z,0.00
2019-05-26T00:21:34.947Z,0.00
2019-05-26T00:22:34.660Z,0.00
2019-05-26T00:23:35.074Z,0.00
2019-05-26T00:24:35.379Z,0.00
2019-05-26T00:25:35.520Z,0.00
2019-05-26T00:26:34.612Z,0.00
2019-05-26T00:27:34.604Z,0.00
2019-05-26T00:28:34.570Z,0.00
2019-05-26T00:29:34.827Z,0.00
2019-05-26T00:30:34.584Z,0.00
2019-05-26T00:31:34.910Z,0.00
2019-05-26T00:32:35.256Z,0.00
2019-05-26T00:33:35.086Z,0.00
2019-05-26T00:34:34.610Z,0.00
2019-05-26T00:35:35.276Z,0.00
2019-05-26T00:36:34.587Z,0.00
2019-05-26T00:37:48.368Z,0.00
2019-05-26T00:38:34.654Z,0.00
2019-05-26T00:39:34.850Z,0.00
2019-05-26T00:40:35.411Z,0.00
2019-05-26T00:41:34.678Z,0.00
2019-05-26T00:42:34.625Z,0.00
2019-05-26T00:43:35.555Z,0.00
2019-05-26T00:44:35.106Z,0.06
2019-05-26T00:45:34.633Z,0.00
2019-05-26T00:46:34.543Z,0.00
2019-05-26T00:47:35.010Z,0.00
2019-05-26T00:48:34.705Z,0.00
2019-05-26T00:49:34.970Z,0.59
2019-05-26T00:50:34.661Z,0.73
2019-05-26T00:51:34.606Z,0.53
2019-05-26T00:52:34.623Z,0.11
2019-05-26T00:53:35.440Z,0.00
2019-05-26T00:54:34.741Z,0.90
2019-05-26T00:55:34.582Z,0.03
2019-05-26T00:56:35.614Z,0.00
2019-05-26T00:57:34.634Z,0.00
2019-05-26T00:58:34.639Z,0.00
2019-05-26T00:59:34.734Z,0.00
2019-05-26T01:00:34.733Z,0.00
2019-05-26T01:01:34.985Z,0.00
2019-05-26T01:02:34.578Z,0.03
2019-05-26T01:03:35.410Z,0.39
2019-05-26T01:04:35.473Z,0.00
2019-05-26T01:05:34.950Z,0.00
2019-05-26T01:06:35.262Z,0.00
2019-05-26T01:07:34.964Z,0.24
2019-05-26T01:08:34.641Z,0.31
2019-05-26T01:09:35.635Z,0.00
2019-05-26T01:10:34.621Z,0.00
2019-05-26T01:11:35.434Z,0.00
2019-05-26T01:12:34.679Z,0.00
2019-05-26T01:13:34.765Z,0.20
2019-05-26T01:14:34.958Z,0.01
2019-05-26T01:15:34.668Z,0.00
2019-05-26T01:16:35.259Z,0.00
2019-05-26T01:17:34.594Z,0.00
2019-05-26T01:18:35.008Z,0.00
2019-05-26T01:19:35.337Z,0.00
2019-05-26T01:20:34.612Z,0.00
2019-05-26T01:21:34.663Z,0.00
2019-05-26T01:22:34.642Z,0.00
2019-05-26T01:23:34.662Z,0.00
2019-05-26T01:24:35.423Z,0.00
2019-05-26T01:25:34.647Z,0.00
2019-05-26T01:26:34.987Z,0.00
2019-05-26T01:27:34.813Z,0.00
2019-05-26T01:28:34.685Z,0.00
2019-05-26T01:29:34.621Z,0.00
2019-05-26T01:30:35.389Z,0.00
2019-05-26T01:31:35.569Z,0.24
2019-05-26T01:32:35.120Z,0.32
2019-05-26T01:33:35.437Z,0.03
2019-05-26T01:34:34.689Z,0.00
2019-05-26T01:35:35.191Z,0.00
2019-05-26T01:36:35.064Z,0.00
2019-05-26T01:37:35.331Z,0.00
2019-05-26T01:38:34.642Z,0.55
2019-05-26T01:39:35.711Z,0.60
2019-05-26T01:40:34.666Z,1.06
2019-05-26T01:41:35.603Z,0.83
2019-05-26T01:42:34.684Z,1.00
2019-05-26T01:43:34.702Z,0.28
2019-05-26T01:44:34.656Z,0.66
2019-05-26T01:45:34.722Z,0.06
2019-05-26T01:46:35.275Z,0.00
2019-05-26T01:47:34.814Z,0.05
2019-05-26T01:48:35.498Z,0.24
2019-05-26T01:49:34.687Z,0.91
2019-05-26T01:50:34.867Z,0.60
2019-05-26T01:51:34.742Z,0.59
2019-05-26T01:52:34.705Z,0.34
2019-05-26T01:53:34.875Z,0.65
2019-05-26T01:54:34.835Z,0.56
2019-05-26T01:55:35.143Z,0.76
2019-05-26T01:56:35.029Z,0.84
2019-05-26T01:57:35.446Z,0.66
2019-05-26T01:58:34.766Z,0.79
2019-05-26T01:59:34.720Z,0.18
2019-05-26T02:00:34.748Z,0.00
2019-05-26T02:01:35.020Z,0.29
2019-05-26T02:02:34.681Z,0.00
2019-05-26T02:03:34.745Z,0.00
2019-05-26T02:04:35.345Z,0.31
2019-05-26T02:05:34.685Z,0.81
2019-05-26T02:06:34.671Z,0.66
2019-05-26T02:07:34.960Z,0.71
2019-05-26T02:08:39.205Z,0.60
2019-05-26T02:09:34.696Z,0.18
2019-05-26T02:10:34.694Z,0.66
2019-05-26T02:11:35.307Z,0.75
2019-05-26T02:12:35.773Z,1.21
2019-05-26T02:13:35.016Z,1.03
2019-05-26T02:14:35.329Z,0.36
2019-05-26T02:15:35.084Z,0.00
2019-05-26T02:16:35.449Z,0.00
2019-05-26T02:17:34.712Z,0.28
2019-05-26T02:18:34.689Z,0.86
2019-05-26T02:19:34.794Z,0.26
2019-05-26T02:20:35.318Z,0.00
2019-05-26T02:21:34.776Z,0.76
2019-05-26T02:22:35.880Z,0.58
2019-05-26T02:23:35.074Z,0.94
2019-05-26T02:24:34.704Z,0.02
2019-05-26T02:25:35.144Z,0.14
2019-05-26T02:26:35.301Z,0.32
2019-05-26T02:27:35.832Z,0.84
2019-05-26T02:28:35.457Z,0.76
2019-05-26T02:29:36.609Z,0.00
2019-05-26T02:30:34.690Z,0.00
2019-05-26T02:31:34.756Z,0.00
2019-05-26T02:32:34.770Z,0.00
2019-05-26T02:33:35.329Z,0.54
2019-05-26T02:34:35.063Z,0.80
2019-05-26T02:35:34.971Z,0.58
2019-05-26T02:36:34.704Z,0.26
2019-05-26T02:37:35.115Z,0.23
2019-05-26T02:38:34.776Z,0.55
2019-05-26T02:39:34.731Z,0.14
2019-05-26T02:40:35.249Z,0.00
2019-05-26T02:41:35.123Z,0.00
2019-05-26T02:42:35.087Z,0.00
2019-05-26T02:43:34.750Z,0.00
2019-05-26T02:44:34.797Z,0.00
2019-05-26T02:45:35.316Z,0.00
2019-05-26T02:46:35.130Z,0.00
2019-05-26T02:47:35.095Z,0.00
2019-05-26T02:48:35.423Z,0.00
2019-05-26T02:49:34.807Z,0.00
2019-05-26T02:50:35.389Z,0.00
2019-05-26T02:51:34.735Z,0.00
2019-05-26T02:52:34.800Z,0.18
2019-05-26T02:53:35.107Z,0.79
2019-05-26T02:54:34.755Z,0.38
2019-05-26T02:55:35.132Z,0.21
2019-05-26T02:56:35.101Z,0.00
2019-05-26T02:57:34.735Z,0.00
2019-05-26T02:58:34.787Z,0.00
2019-05-26T02:59:34.802Z,0.25
2019-05-26T03:00:35.448Z,0.67
2019-05-26T03:01:34.697Z,0.39
2019-05-26T03:02:35.104Z,0.24
2019-05-26T03:03:34.752Z,0.40
2019-05-26T03:04:35.225Z,0.19
2019-05-26T03:05:35.054Z,0.89
2019-05-26T03:06:34.739Z,0.46
2019-05-26T03:07:34.691Z,0.23
2019-05-26T03:08:34.787Z,0.00
2019-05-26T03:09:34.787Z,0.51
2019-05-26T03:10:34.717Z,0.48
2019-05-26T03:11:36.309Z,0.50
2019-05-26T03:12:34.758Z,1.09
2019-05-26T03:13:34.714Z,0.25
2019-05-26T03:14:35.126Z,0.42
2019-05-26T03:15:34.789Z,0.46
2019-05-26T03:16:34.719Z,0.88
2019-05-26T03:17:37.535Z,0.19
2019-05-26T03:18:34.737Z,0.45
2019-05-26T03:19:34.777Z,0.25
2019-05-26T03:20:35.841Z,0.18
2019-05-26T03:21:35.498Z,1.05
2019-05-26T03:22:35.064Z,0.07
2019-05-26T03:23:34.846Z,0.63
2019-05-26T03:24:35.224Z,0.78
2019-05-26T03:25:34.711Z,0.57
2019-05-26T03:26:35.141Z,0.00
2019-05-26T03:27:35.127Z,0.00
2019-05-26T03:28:34.755Z,0.07
2019-05-26T03:29:35.188Z,0.83
2019-05-26T03:30:35.263Z,0.00
2019-05-26T03:31:34.752Z,0.00
2019-05-26T03:32:34.852Z,0.00
2019-05-26T03:33:34.789Z,0.66
2019-05-26T03:34:34.792Z,0.40
2019-05-26T03:35:35.027Z,0.00
2019-05-26T03:36:34.811Z,0.60
2019-05-26T03:37:34.727Z,0.42
2019-05-26T03:38:35.701Z,0.00
2019-05-26T03:39:44.241Z,0.53
2019-05-26T03:40:35.275Z,0.57
2019-05-26T03:41:34.834Z,0.75
2019-05-26T03:42:34.838Z,0.71
2019-05-26T03:43:35.078Z,0.53
2019-05-26T03:44:34.846Z,1.33
2019-05-26T03:45:34.821Z,0.56
2019-05-26T03:46:34.811Z,0.01
2019-05-26T03:47:35.078Z,0.85
2019-05-26T03:48:35.203Z,0.99
2019-05-26T03:49:34.843Z,0.60
2019-05-26T03:50:34.760Z,0.27
2019-05-26T03:51:34.892Z,1.01
2019-05-26T03:52:35.266Z,1.36
2019-05-26T03:53:35.220Z,0.91
2019-05-26T03:54:35.468Z,0.47
2019-05-26T03:55:34.796Z,1.21
2019-05-26T03:56:35.475Z,0.02
2019-05-26T03:57:35.536Z,0.75
2019-05-26T03:58:34.806Z,0.02
2019-05-26T03:59:34.801Z,0.42
2019-05-26T04:00:34.842Z,0.08
2019-05-26T04:01:34.841Z,0.11
2019-05-26T04:02:34.760Z,1.26
2019-05-26T04:03:35.521Z,1.07
2019-05-26T04:04:35.280Z,1.36
2019-05-26T04:05:34.762Z,1.59
2019-05-26T04:06:34.845Z,0.91
2019-05-26T04:07:34.807Z,0.37
2019-05-26T04:08:34.810Z,0.82
2019-05-26T04:09:35.017Z,0.98
2019-05-26T04:10:34.801Z,0.90
2019-05-26T04:11:34.768Z,1.21
2019-05-26T04:12:34.927Z,0.70
2019-05-26T04:13:35.785Z,0.66
2019-05-26T04:14:35.117Z,0.19
2019-05-26T04:15:35.006Z,1.34
2019-05-26T04:16:34.811Z,0.79
2019-05-26T04:17:36.059Z,0.30
2019-05-26T04:18:34.879Z,0.00
2019-05-26T04:19:34.810Z,0.78
2019-05-26T04:20:35.256Z,0.38
2019-05-26T04:21:34.863Z,0.00
2019-05-26T04:22:35.330Z,0.67
2019-05-26T04:23:35.283Z,1.01
2019-05-26T04:24:35.210Z,0.19
2019-05-26T04:25:35.878Z,0.19
2019-05-26T04:26:34.803Z,1.20
2019-05-26T04:27:34.879Z,1.02
2019-05-26T04:28:34.926Z,0.01
2019-05-26T04:29:34.785Z,0.88
2019-05-26T04:30:35.920Z,1.24
2019-05-26T04:31:35.214Z,1.00
2019-05-26T04:32:34.809Z,0.95
2019-05-26T04:33:35.362Z,0.43
2019-05-26T04:34:35.087Z,0.58
2019-05-26T04:35:34.823Z,0.52
2019-05-26T04:36:35.715Z,0.00
2019-05-26T04:37:35.782Z,0.42
2019-05-26T04:38:35.198Z,1.69
2019-05-26T04:39:35.316Z,0.04
2019-05-26T04:40:34.861Z,0.67
2019-05-26T04:41:35.164Z,0.39
2019-05-26T04:42:35.115Z,1.17
2019-05-26T04:43:35.180Z,0.82
2019-05-26T04:44:36.085Z,0.56
2019-05-26T04:45:35.612Z,0.54
2019-05-26T04:46:35.211Z,1.58
2019-05-26T04:47:34.822Z,1.02
2019-05-26T04:48:34.807Z,0.97
2019-05-26T04:49:37.679Z,1.23
2019-05-26T04:50:35.194Z,1.20
2019-05-26T04:51:34.949Z,1.25
2019-05-26T04:52:34.869Z,1.69
2019-05-26T04:53:35.441Z,0.84
2019-05-26T04:54:35.792Z,1.15
2019-05-26T04:55:34.873Z,0.86
2019-05-26T04:56:34.846Z,1.28
2019-05-26T04:57:34.814Z,1.48
2019-05-26T04:58:34.880Z,1.07
2019-05-26T04:59:34.901Z,0.52
2019-05-26T05:00:35.438Z,0.00
2019-05-26T05:01:34.952Z,0.55
2019-05-26T05:02:35.508Z,0.00
2019-05-26T05:03:35.379Z,0.34
2019-05-26T05:04:34.964Z,1.73
2019-05-26T05:05:35.459Z,0.61
2019-05-26T05:06:35.884Z,1.06
2019-05-26T05:07:35.250Z,0.77
2019-05-26T05:08:35.086Z,0.32
2019-05-26T05:09:34.857Z,0.35
2019-05-26T05:10:42.331Z,1.07
2019-05-26T05:11:34.879Z,1.36
2019-05-26T05:12:34.844Z,1.97
2019-05-26T05:13:34.894Z,1.82
2019-05-26T05:14:34.914Z,2.33
2019-05-26T05:15:34.848Z,2.61
2019-05-26T05:16:34.914Z,1.14
2019-05-26T05:17:34.871Z,2.12
2019-05-26T05:18:34.920Z,1.67
2019-05-26T05:19:36.277Z,1.40
2019-05-26T05:20:34.889Z,0.35
2019-05-26T05:21:34.840Z,0.71
2019-05-26T05:22:34.917Z,0.95
2019-05-26T05:23:34.906Z,2.14
2019-05-26T05:24:34.896Z,2.79
2019-05-26T05:25:34.824Z,2.13
2019-05-26T05:26:35.598Z,0.72
2019-05-26T05:27:34.858Z,1.15
2019-05-26T05:28:34.944Z,2.03
2019-05-26T05:29:35.648Z,0.65
2019-05-26T05:30:35.218Z,1.51
2019-05-26T05:31:35.982Z,0.41
2019-05-26T05:32:34.981Z,1.52
2019-05-26T05:33:35.380Z,2.23
2019-05-26T05:34:34.904Z,0.94
2019-05-26T05:35:35.263Z,1.68
2019-05-26T05:36:34.863Z,1.78
2019-05-26T05:37:35.270Z,1.68
2019-05-26T05:38:34.888Z,2.12
2019-05-26T05:39:35.624Z,1.72
2019-05-26T05:40:34.882Z,1.05
2019-05-26T05:41:35.228Z,1.78
2019-05-26T05:42:35.092Z,1.93
2019-05-26T05:43:34.944Z,2.50
2019-05-26T05:44:35.081Z,1.79
2019-05-26T05:45:34.879Z,1.56
2019-05-26T05:46:35.856Z,2.34
2019-05-26T05:47:35.822Z,2.91
2019-05-26T05:48:34.911Z,1.08
2019-05-26T05:49:34.858Z,0.61
2019-05-26T05:50:38.754Z,0.19
2019-05-26T05:51:34.955Z,1.80
2019-05-26T05:52:35.467Z,2.31
2019-05-26T05:53:35.553Z,2.69
2019-05-26T05:54:35.238Z,1.75
2019-05-26T05:55:35.210Z,2.14
2019-05-26T05:56:34.944Z,1.91
2019-05-26T05:57:35.526Z,2.61
2019-05-26T05:58:35.213Z,2.54
2019-05-26T05:59:36.022Z,1.72
2019-05-26T06:00:34.917Z,1.73
2019-05-26T06:01:34.885Z,3.21
2019-05-26T06:02:34.946Z,2.21
2019-05-26T06:03:35.002Z,3.72
2019-05-26T06:04:35.074Z,1.93
2019-05-26T06:05:35.276Z,2.38
2019-05-26T06:06:35.883Z,2.76
2019-05-26T06:07:34.911Z,3.11
2019-05-26T06:08:34.980Z,2.66
2019-05-26T06:09:34.970Z,3.87
2019-05-26T06:10:35.597Z,3.31
2019-05-26T06:11:35.673Z,3.52
2019-05-26T06:12:34.895Z,2.15
2019-05-26T06:13:35.754Z,1.91
2019-05-26T06:14:35.813Z,2.92
2019-05-26T06:15:36.001Z,1.32
2019-05-26T06:16:34.905Z,2.16
2019-05-26T06:17:35.667Z,2.60
2019-05-26T06:18:35.307Z,1.59
2019-05-26T06:19:34.938Z,2.84
2019-05-26T06:20:35.005Z,1.87
2019-05-26T06:21:35.293Z,2.56
2019-05-26T06:22:34.926Z,2.61
2019-05-26T06:23:37.033Z,1.11
2019-05-26T06:24:35.279Z,2.22
2019-05-26T06:25:34.887Z,2.45
2019-05-26T06:26:35.027Z,2.71
2019-05-26T06:27:35.051Z,2.99
2019-05-26T06:28:35.113Z,1.91
2019-05-26T06:29:35.043Z,2.40
2019-05-26T06:30:35.547Z,2.32
2019-05-26T06:31:35.060Z,2.42
2019-05-26T06:32:35.015Z,3.14
2019-05-26T06:33:35.675Z,1.75
2019-05-26T06:34:35.258Z,3.04
2019-05-26T06:35:35.013Z,1.78
2019-05-26T06:36:35.315Z,2.19
2019-05-26T06:37:35.297Z,2.64
2019-05-26T06:38:35.712Z,2.89
2019-05-26T06:39:36.050Z,3.17
2019-05-26T06:40:34.946Z,2.56
2019-05-26T06:41:35.434Z,2.10
2019-05-26T06:42:35.040Z,2.23
2019-05-26T06:43:37.258Z,2.84
2019-05-26T06:44:52.014Z,2.09
2019-05-26T06:45:36.234Z,2.98
2019-05-26T06:46:34.954Z,3.81
2019-05-26T06:47:35.969Z,2.34
2019-05-26T06:48:35.674Z,2.17
2019-05-26T06:49:34.986Z,3.22
2019-05-26T06:50:35.124Z,2.05
2019-05-26T06:51:35.314Z,2.78
2019-05-26T06:52:35.054Z,2.77
2019-05-26T06:53:37.365Z,3.25
2019-05-26T06:54:35.746Z,3.35
2019-05-26T06:55:35.535Z,2.70
2019-05-26T06:56:35.041Z,2.16
2019-05-26T06:57:35.321Z,1.32
2019-05-26T06:58:34.960Z,1.54
2019-05-26T06:59:35.461Z,1.34
2019-05-26T07:00:34.985Z,2.70
2019-05-26T07:01:35.314Z,1.54
2019-05-26T07:02:35.539Z,1.58
2019-05-26T07:03:35.024Z,1.44
2019-05-26T07:04:35.722Z,1.73
2019-05-26T07:05:34.961Z,1.66
2019-05-26T07:06:35.336Z,1.10
2019-05-26T07:07:35.780Z,1.55
2019-05-26T07:08:35.507Z,2.84
2019-05-26T07:09:35.358Z,2.40
2019-05-26T07:10:36.055Z,2.41
2019-05-26T07:11:50.131Z,3.32
2019-05-26T07:12:35.220Z,1.83
2019-05-26T07:13:35.370Z,2.27
2019-05-26T07:14:35.394Z,2.34
2019-05-26T07:15:35.368Z,1.42
2019-05-26T07:16:38.444Z,2.86
2019-05-26T07:17:34.972Z,2.31
2019-05-26T07:18:35.074Z,1.78
2019-05-26T07:19:35.018Z,2.94
2019-05-26T07:20:35.309Z,2.08
2019-05-26T07:21:36.224Z,1.95
2019-05-26T07:22:34.969Z,1.41
2019-05-26T07:23:35.569Z,1.76
2019-05-26T07:24:35.078Z,2.21
2019-05-26T07:25:35.617Z,2.23
2019-05-26T07:26:34.990Z,2.28
2019-05-26T07:27:35.070Z,1.73
2019-05-26T07:28:35.743Z,1.76
2019-05-26T07:29:35.010Z,2.07
2019-05-26T07:30:36.123Z,0.54
2019-05-26T07:31:35.263Z,2.06
2019-05-26T07:32:35.602Z,3.67
2019-05-26T07:33:35.120Z,2.75
2019-05-26T07:34:35.057Z,2.07
2019-05-26T07:35:35.352Z,2.77
2019-05-26T07:36:35.079Z,2.75
2019-05-26T07:37:35.294Z,1.70
2019-05-26T07:38:34.996Z,3.57
2019-05-26T07:39:36.094Z,3.08
2019-05-26T07:40:35.174Z,1.22
2019-05-26T07:41:35.387Z,2.32
2019-05-26T07:42:36.239Z,2.16
2019-05-26T07:43:35.053Z,2.39
2019-05-26T07:44:35.658Z,1.64
2019-05-26T07:45:35.405Z,3.13
2019-05-26T07:46:36.098Z,2.54
2019-05-26T07:47:35.337Z,3.06
2019-05-26T07:48:35.986Z,2.38
2019-05-26T07:49:35.069Z,2.70
2019-05-26T07:50:35.262Z,0.40
2019-05-26T07:51:35.919Z,2.75
2019-05-26T07:52:35.058Z,1.99
2019-05-26T07:53:35.718Z,2.32
2019-05-26T07:54:35.452Z,1.77
2019-05-26T07:55:35.676Z,1.90
2019-05-26T07:56:35.098Z,3.06
2019-05-26T07:57:35.337Z,1.56
2019-05-26T07:58:35.075Z,2.62
2019-05-26T07:59:35.376Z,2.18
2019-05-26T08:00:34.981Z,2.24
2019-05-26T08:01:36.635Z,2.01
2019-05-26T08:02:35.019Z,2.24
2019-05-26T08:03:35.765Z,2.79
2019-05-26T08:04:35.143Z,2.62
2019-05-26T08:05:35.510Z,2.60
2019-05-26T08:06:35.150Z,2.94
2019-05-26T08:07:35.417Z,3.61
2019-05-26T08:08:35.635Z,3.21
2019-05-26T08:09:35.391Z,3.20
2019-05-26T08:10:35.126Z,2.24
2019-05-26T08:11:35.435Z,3.43
2019-05-26T08:12:35.458Z,2.37
2019-05-26T08:13:35.097Z,1.83
2019-05-26T08:14:35.142Z,1.60
2019-05-26T08:15:35.624Z,1.45
2019-05-26T08:16:35.088Z,1.95
2019-05-26T08:17:35.061Z,3.68
2019-05-26T08:18:35.008Z,2.16
2019-05-26T08:19:35.114Z,1.03
2019-05-26T08:20:35.407Z,3.17
2019-05-26T08:21:35.267Z,2.93
2019-05-26T08:22:35.447Z,3.11
2019-05-26T08:23:37.822Z,3.71
2019-05-26T08:24:35.368Z,3.29
2019-05-26T08:25:35.078Z,2.69
2019-05-26T08:26:35.657Z,2.84
2019-05-26T08:27:35.022Z,3.95
2019-05-26T08:28:35.132Z,3.38
2019-05-26T08:29:35.116Z,3.25
2019-05-26T08:30:35.757Z,0.98
2019-05-26T08:31:35.098Z,2.48
2019-05-26T08:32:35.676Z,1.81
2019-05-26T08:33:35.487Z,1.88
2019-05-26T08:34:35.141Z,3.73
2019-05-26T08:35:35.060Z,2.93
2019-05-26T08:36:35.071Z,1.70
2019-05-26T08:37:35.139Z,3.45
2019-05-26T08:38:35.088Z,4.24
2019-05-26T08:39:35.094Z,3.24
2019-05-26T08:40:35.113Z,3.12
2019-05-26T08:41:35.079Z,3.68
2019-05-26T08:42:44.171Z,2.70
2019-05-26T08:43:35.480Z,3.32
2019-05-26T08:44:35.372Z,3.41
2019-05-26T08:45:36.790Z,2.67
2019-05-26T08:46:35.161Z,3.73
2019-05-26T08:47:35.087Z,4.33
2019-05-26T08:48:35.066Z,3.15
2019-05-26T08:49:35.195Z,2.68
2019-05-26T08:50:35.121Z,2.82
2019-05-26T08:51:35.437Z,2.00
2019-05-26T08:52:35.862Z,2.54
2019-05-26T08:53:35.116Z,4.06
2019-05-26T08:54:36.107Z,3.03
2019-05-26T08:55:35.036Z,3.50
2019-05-26T08:56:35.705Z,2.73
2019-05-26T08:57:35.073Z,2.68
2019-05-26T08:58:35.498Z,1.69
2019-05-26T08:59:35.125Z,2.77
2019-05-26T09:00:35.424Z,3.05
2019-05-26T09:01:35.898Z,3.85
2019-05-26T09:02:35.135Z,2.81
2019-05-26T09:03:35.126Z,4.00
2019-05-26T09:04:35.085Z,3.33
2019-05-26T09:05:35.822Z,3.37
2019-05-26T09:06:36.405Z,3.69
2019-05-26T09:07:35.433Z,2.90
2019-05-26T09:08:35.133Z,3.22
2019-05-26T09:09:35.152Z,2.89
2019-05-26T09:10:35.047Z,3.64
2019-05-26T09:11:36.027Z,4.31
2019-05-26T09:12:35.089Z,2.54
2019-05-26T09:13:35.161Z,2.80
2019-05-26T09:14:35.485Z,2.66
2019-05-26T09:15:35.336Z,5.22
2019-05-26T09:16:36.135Z,2.56
2019-05-26T09:17:35.750Z,4.22
2019-05-26T09:18:35.489Z,4.00
2019-05-26T09:19:35.113Z,3.91
2019-05-26T09:20:35.769Z,3.22
2019-05-26T09:21:35.090Z,3.62
2019-05-26T09:22:35.081Z,2.88
2019-05-26T09:23:35.183Z,2.73
2019-05-26T09:24:35.566Z,3.19
2019-05-26T09:25:35.183Z,2.06
2019-05-26T09:26:35.725Z,1.94
2019-05-26T09:27:35.658Z,3.00
2019-05-26T09:28:36.045Z,2.04
2019-05-26T09:29:35.213Z,1.35
2019-05-26T09:30:35.441Z,0.96
2019-05-26T09:31:35.108Z,2.87
2019-05-26T09:32:35.102Z,2.11
2019-05-26T09:33:35.108Z,2.04
2019-05-26T09:34:35.321Z,2.54
2019-05-26T09:35:35.423Z,2.21
2019-05-26T09:36:35.238Z,2.52
2019-05-26T09:37:35.710Z,1.56
2019-05-26T09:38:35.177Z,2.21
2019-05-26T09:39:35.195Z,3.64
2019-05-26T09:40:35.903Z,3.18
2019-05-26T09:41:35.164Z,3.44
2019-05-26T09:42:35.494Z,2.56
2019-05-26T09:43:35.433Z,3.38
2019-05-26T09:44:35.128Z,2.50
2019-05-26T09:45:35.167Z,2.71
2019-05-26T09:46:35.129Z,2.31
2019-05-26T09:47:35.237Z,2.07
2019-05-26T09:48:36.564Z,2.76
2019-05-26T09:49:35.965Z,2.74
2019-05-26T09:50:35.172Z,2.37
2019-05-26T09:51:35.793Z,2.31
2019-05-26T09:52:35.126Z,1.87
2019-05-26T09:53:35.195Z,1.62
2019-05-26T09:54:35.228Z,1.55
2019-05-26T09:55:35.524Z,3.54
2019-05-26T09:56:35.317Z,2.85
2019-05-26T09:57:35.179Z,3.08
2019-05-26T09:58:35.252Z,2.54
2019-05-26T09:59:35.247Z,2.73
2019-05-26T10:00:35.179Z,2.79
2019-05-26T10:01:35.164Z,2.82
2019-05-26T10:02:35.272Z,3.06
2019-05-26T10:03:35.209Z,2.21
2019-05-26T10:04:36.005Z,2.94
2019-05-26T10:05:35.232Z,3.40
2019-05-26T10:06:35.187Z,3.86
2019-05-26T10:07:35.768Z,2.77
2019-05-26T10:08:35.248Z,3.27
2019-05-26T10:09:35.300Z,3.33
2019-05-26T10:10:35.313Z,3.27
2019-05-26T10:11:35.219Z,3.22
2019-05-26T10:12:36.296Z,2.76
2019-05-26T10:13:35.362Z,3.51
2019-05-26T10:14:35.594Z,2.79
2019-05-26T10:15:35.197Z,2.27
2019-05-26T10:16:35.371Z,3.40
2019-05-26T10:17:36.303Z,3.21
2019-05-26T10:18:35.182Z,3.63
2019-05-26T10:19:35.379Z,4.71
2019-05-26T10:20:35.239Z,3.04
2019-05-26T10:21:35.539Z,2.14
2019-05-26T10:22:35.155Z,1.72
2019-05-26T10:23:35.229Z,2.21
2019-05-26T10:24:35.234Z,1.78
2019-05-26T10:25:36.125Z,1.88
2019-05-26T10:26:35.295Z,1.95
2019-05-26T10:27:35.648Z,2.00
2019-05-26T10:28:35.185Z,2.85
2019-05-26T10:29:35.638Z,2.87
2019-05-26T10:30:35.221Z,1.20
2019-05-26T10:31:35.199Z,2.73
2019-05-26T10:32:35.174Z,3.39
2019-05-26T10:33:35.203Z,3.48
2019-05-26T10:34:35.437Z,3.20
2019-05-26T10:35:35.783Z,2.47
2019-05-26T10:36:35.305Z,1.05
2019-05-26T10:37:35.220Z,2.86
2019-05-26T10:38:35.169Z,1.67
2019-05-26T10:39:35.261Z,1.81
2019-05-26T10:40:35.817Z,2.63
2019-05-26T10:41:35.244Z,4.37
2019-05-26T10:42:35.251Z,3.70
2019-05-26T10:43:46.875Z,2.37
2019-05-26T10:44:36.019Z,3.91
2019-05-26T10:45:35.628Z,2.46
2019-05-26T10:46:35.241Z,4.80
2019-05-26T10:47:35.222Z,4.76
2019-05-26T10:48:35.302Z,4.34
2019-05-26T10:49:35.277Z,3.20
2019-05-26T10:50:35.195Z,2.47
2019-05-26T10:51:35.279Z,2.11
2019-05-26T10:52:35.223Z,2.93
2019-05-26T10:53:35.639Z,2.13
2019-05-26T10:54:35.284Z,3.88
2019-05-26T10:55:35.233Z,2.80
2019-05-26T10:56:35.906Z,3.16
2019-05-26T10:57:35.602Z,4.09
2019-05-26T10:58:37.632Z,3.25
2019-05-26T10:59:35.724Z,3.19
2019-05-26T11:00:35.884Z,3.50
2019-05-26T11:01:35.221Z,3.16
2019-05-26T11:02:36.058Z,3.50
2019-05-26T11:03:35.834Z,4.11
2019-05-26T11:04:35.465Z,4.87
2019-05-26T11:05:36.186Z,4.77
2019-05-26T11:06:36.020Z,4.29
2019-05-26T11:07:36.216Z,3.68
2019-05-26T11:08:35.324Z,3.69
2019-05-26T11:09:35.306Z,3.83
2019-05-26T11:10:35.277Z,5.83
2019-05-26T11:11:35.264Z,4.53
2019-05-26T11:12:35.845Z,3.37
2019-05-26T11:13:35.259Z,3.63
2019-05-26T11:14:35.313Z,3.00
2019-05-26T11:15:35.311Z,3.26
2019-05-26T11:16:35.258Z,2.90
2019-05-26T11:17:35.237Z,4.05
2019-05-26T11:18:35.310Z,2.58
2019-05-26T11:19:35.321Z,2.97
2019-05-26T11:20:35.288Z,2.68
2019-05-26T11:21:36.018Z,5.17
2019-05-26T11:22:35.978Z,3.00
2019-05-26T11:23:35.231Z,2.77
2019-05-26T11:24:35.347Z,3.05
2019-05-26T11:25:35.286Z,3.21
2019-05-26T11:26:35.781Z,3.39
2019-05-26T11:27:35.636Z,3.10
2019-05-26T11:28:35.457Z,3.12
2019-05-26T11:29:35.478Z,2.85
2019-05-26T11:30:35.338Z,3.81
2019-05-26T11:31:36.013Z,4.57
2019-05-26T11:32:35.286Z,4.37
2019-05-26T11:33:35.691Z,3.68
2019-05-26T11:34:35.325Z,2.04
2019-05-26T11:35:35.254Z,3.00
2019-05-26T11:36:35.341Z,5.44
2019-05-26T11:37:35.272Z,5.41
2019-05-26T11:38:35.275Z,4.21
2019-05-26T11:39:35.368Z,5.06
2019-05-26T11:40:35.355Z,4.02
2019-05-26T11:41:35.266Z,4.68
2019-05-26T11:42:35.322Z,5.17
2019-05-26T11:43:35.675Z,5.69
2019-05-26T11:44:35.751Z,4.11
2019-05-26T11:45:35.332Z,3.74
2019-05-26T11:46:35.318Z,2.39
2019-05-26T11:47:36.323Z,1.86
2019-05-26T11:48:38.480Z,4.34
2019-05-26T11:49:35.405Z,4.24
2019-05-26T11:50:35.302Z,2.99
2019-05-26T11:51:35.725Z,3.53
2019-05-26T11:52:35.472Z,4.41
2019-05-26T11:53:35.272Z,4.01
2019-05-26T11:54:35.443Z,4.01
2019-05-26T11:55:35.287Z,4.03
2019-05-26T11:56:35.316Z,2.26
2019-05-26T11:57:36.716Z,3.16
2019-05-26T11:58:35.318Z,1.60
2019-05-26T11:59:35.665Z,4.53
2019-05-26T12:00:35.452Z,3.47
2019-05-26T12:01:35.359Z,2.84
2019-05-26T12:02:35.923Z,1.85
2019-05-26T12:03:35.398Z,3.08
2019-05-26T12:04:35.698Z,2.91
2019-05-26T12:05:35.386Z,3.61
2019-05-26T12:06:35.247Z,3.67
2019-05-26T12:07:35.326Z,3.50
2019-05-26T12:08:35.306Z,4.26
2019-05-26T12:09:35.308Z,3.69
2019-05-26T12:10:35.370Z,3.96
2019-05-26T12:11:35.330Z,3.34
2019-05-26T12:12:35.730Z,2.90
2019-05-26T12:13:36.774Z,4.87
2019-05-26T12:14:35.741Z,4.02
2019-05-26T12:15:35.612Z,4.38
2019-05-26T12:16:35.537Z,4.59
2019-05-26T12:17:35.350Z,2.18
2019-05-26T12:18:35.750Z,3.26
2019-05-26T12:19:35.782Z,4.09
2019-05-26T12:20:35.531Z,4.50
2019-05-26T12:21:35.415Z,5.92
2019-05-26T12:22:36.434Z,4.48
2019-05-26T12:23:35.325Z,3.88
2019-05-26T12:24:35.830Z,5.20
2019-05-26T12:25:35.403Z,4.09
2019-05-26T12:26:35.944Z,3.36
2019-05-26T12:27:35.302Z,3.37
2019-05-26T12:28:35.402Z,3.48
2019-05-26T12:29:35.363Z,4.47
2019-05-26T12:30:35.431Z,3.97
2019-05-26T12:31:35.368Z,2.75
2019-05-26T12:32:35.366Z,3.79
2019-05-26T12:33:35.438Z,3.66
2019-05-26T12:34:35.473Z,4.73
2019-05-26T12:35:35.356Z,4.22
2019-05-26T12:36:39.043Z,3.94
2019-05-26T12:37:35.395Z,4.04
2019-05-26T12:38:35.350Z,4.47
2019-05-26T12:39:35.381Z,3.39
2019-05-26T12:40:35.445Z,3.27
2019-05-26T12:41:37.222Z,3.32
2019-05-26T12:42:36.377Z,3.24
2019-05-26T12:43:35.719Z,2.17
2019-05-26T12:44:48.652Z,4.40
2019-05-26T12:45:35.387Z,3.07
2019-05-26T12:46:36.126Z,3.49
2019-05-26T12:47:35.391Z,3.38
2019-05-26T12:48:35.380Z,2.96
2019-05-26T12:49:35.407Z,3.75
2019-05-26T12:50:35.417Z,2.82
2019-05-26T12:51:35.954Z,3.11
2019-05-26T12:52:35.393Z,2.19
2019-05-26T12:53:35.981Z,3.36
2019-05-26T12:54:35.390Z,3.24
2019-05-26T12:55:36.223Z,2.67
2019-05-26T12:56:35.389Z,2.27
2019-05-26T12:57:35.389Z,2.67
2019-05-26T12:58:35.453Z,1.84
2019-05-26T12:59:35.402Z,3.16
2019-05-26T13:00:48.066Z,2.91
2019-05-26T13:01:35.485Z,3.54
2019-05-26T13:02:35.444Z,4.03
2019-05-26T13:03:35.349Z,3.99
2019-05-26T13:04:35.427Z,2.79
2019-05-26T13:05:35.411Z,3.13
2019-05-26T13:06:36.106Z,2.67
2019-05-26T13:07:35.445Z,2.23
2019-05-26T13:08:35.479Z,2.78
2019-05-26T13:09:35.702Z,1.75
2019-05-26T13:10:35.407Z,2.87
2019-05-26T13:11:35.449Z,2.80
2019-05-26T13:12:35.395Z,2.64
2019-05-26T13:13:35.437Z,1.77
2019-05-26T13:14:36.132Z,1.37
2019-05-26T13:15:35.379Z,0.77
2019-05-26T13:16:35.938Z,2.02
2019-05-26T13:17:36.023Z,2.93
2019-05-26T13:18:35.417Z,3.79